sensor_id;sensor_type;location;lat;lon;timestamp;P1;durP1;ratioP1;P2;durP2;ratioP2
76459;SDS011;65299;46.084;18.762;2023-01-15T00:00:06;63.63;;;24.77;;
76459;SDS011;65299;46.084;18.762;2023-01-15T00:03:08;59.53;;;23.80;;
76459;SDS011;65299;46.084;18.762;2023-01-15T00:06:08;55.47;;;24.40;;
76459;SDS011;65299;46.084;18.762;2023-01-15T00:09:10;55.83;;;24.03;;
76459;SDS011;65299;46.084;18.762;2023-01-15T00:12:14;58.70;;;25.20;;
76459;SDS011;65299;46.084;18.762;2023-01-15T00:15:14;57.70;;;24.37;;
76459;SDS011;65299;46.084;18.762;2023-01-15T00:18:15;58.87;;;24.97;;
76459;SDS011;65299;46.084;18.762;2023-01-15T00:21:15;55.47;;;24.20;;
76459;SDS011;65299;46.084;18.762;2023-01-15T00:24:16;58.17;;;24.43;;
76459;SDS011;65299;46.084;18.762;2023-01-15T00:27:35;54.20;;;22.38;;
76459;SDS011;65299;46.084;18.762;2023-01-15T00:30:41;46.78;;;22.67;;
76459;SDS011;65299;46.084;18.762;2023-01-15T00:33:42;53.72;;;23.92;;
76459;SDS011;65299;46.084;18.762;2023-01-15T00:36:42;48.80;;;21.10;;
76459;SDS011;65299;46.084;18.762;2023-01-15T00:39:42;52.23;;;23.10;;
76459;SDS011;65299;46.084;18.762;2023-01-15T00:42:43;50.47;;;21.83;;
76459;SDS011;65299;46.084;18.762;2023-01-15T00:45:43;53.42;;;23.13;;
76459;SDS011;65299;46.084;18.762;2023-01-15T00:48:44;52.03;;;22.23;;
76459;SDS011;65299;46.084;18.762;2023-01-15T00:51:44;44.90;;;21.27;;
76459;SDS011;65299;46.084;18.762;2023-01-15T00:54:45;48.58;;;22.05;;
76459;SDS011;65299;46.084;18.762;2023-01-15T00:57:47;41.93;;;21.47;;
76459;SDS011;65299;46.084;18.762;2023-01-15T01:00:57;44.15;;;20.27;;
76459;SDS011;65299;46.084;18.762;2023-01-15T01:04:00;40.60;;;18.97;;
76459;SDS011;65299;46.084;18.762;2023-01-15T01:07:00;32.88;;;17.33;;
76459;SDS011;65299;46.084;18.762;2023-01-15T01:10:01;39.53;;;16.93;;
76459;SDS011;65299;46.084;18.762;2023-01-15T01:13:01;37.28;;;18.27;;
76459;SDS011;65299;46.084;18.762;2023-01-15T01:16:01;44.10;;;19.47;;
76459;SDS011;65299;46.084;18.762;2023-01-15T01:19:07;40.17;;;18.60;;
76459;SDS011;65299;46.084;18.762;2023-01-15T01:22:13;40.27;;;18.40;;
76459;SDS011;65299;46.084;18.762;2023-01-15T01:25:14;43.40;;;19.63;;
76459;SDS011;65299;46.084;18.762;2023-01-15T01:28:14;53.20;;;23.33;;
76459;SDS011;65299;46.084;18.762;2023-01-15T01:31:15;50.53;;;22.43;;
76459;SDS011;65299;46.084;18.762;2023-01-15T01:34:15;51.58;;;23.25;;
76459;SDS011;65299;46.084;18.762;2023-01-15T01:37:16;54.77;;;23.63;;
76459;SDS011;65299;46.084;18.762;2023-01-15T01:40:17;58.80;;;24.90;;
76459;SDS011;65299;46.084;18.762;2023-01-15T01:43:19;60.97;;;26.67;;
76459;SDS011;65299;46.084;18.762;2023-01-15T01:46:22;70.38;;;30.63;;
76459;SDS011;65299;46.084;18.762;2023-01-15T01:49:24;64.40;;;28.53;;
76459;SDS011;65299;46.084;18.762;2023-01-15T01:52:32;61.47;;;25.83;;
76459;SDS011;65299;46.084;18.762;2023-01-15T01:55:38;65.55;;;26.15;;
76459;SDS011;65299;46.084;18.762;2023-01-15T01:58:39;105.80;;;24.88;;
76459;SDS011;65299;46.084;18.762;2023-01-15T02:01:40;96.20;;;27.03;;
76459;SDS011;65299;46.084;18.762;2023-01-15T02:04:41;70.57;;;22.10;;
76459;SDS011;65299;46.084;18.762;2023-01-15T02:07:42;70.43;;;23.00;;
76459;SDS011;65299;46.084;18.762;2023-01-15T02:10:42;95.03;;;23.67;;
76459;SDS011;65299;46.084;18.762;2023-01-15T02:13:46;64.70;;;23.02;;
76459;SDS011;65299;46.084;18.762;2023-01-15T02:16:57;63.17;;;22.27;;
76459;SDS011;65299;46.084;18.762;2023-01-15T02:20:15;82.40;;;22.58;;
76459;SDS011;65299;46.084;18.762;2023-01-15T02:24:08;71.18;;;20.42;;
76459;SDS011;65299;46.084;18.762;2023-01-15T02:27:15;85.83;;;23.00;;
76459;SDS011;65299;46.084;18.762;2023-01-15T02:30:23;81.18;;;22.48;;
76459;SDS011;65299;46.084;18.762;2023-01-15T02:33:34;81.32;;;23.75;;
76459;SDS011;65299;46.084;18.762;2023-01-15T02:36:46;92.45;;;23.38;;
76459;SDS011;65299;46.084;18.762;2023-01-15T02:39:51;69.40;;;22.25;;
76459;SDS011;65299;46.084;18.762;2023-01-15T02:42:53;93.77;;;23.60;;
76459;SDS011;65299;46.084;18.762;2023-01-15T02:45:57;69.70;;;22.33;;
76459;SDS011;65299;46.084;18.762;2023-01-15T02:49:00;62.53;;;20.50;;
76459;SDS011;65299;46.084;18.762;2023-01-15T02:52:13;61.15;;;21.95;;
76459;SDS011;65299;46.084;18.762;2023-01-15T02:55:19;72.05;;;22.00;;
76459;SDS011;65299;46.084;18.762;2023-01-15T02:58:27;62.57;;;21.33;;
76459;SDS011;65299;46.084;18.762;2023-01-15T03:01:40;72.88;;;19.80;;
76459;SDS011;65299;46.084;18.762;2023-01-15T03:05:05;61.60;;;21.02;;
76459;SDS011;65299;46.084;18.762;2023-01-15T03:08:25;70.00;;;22.23;;
76459;SDS011;65299;46.084;18.762;2023-01-15T03:11:26;64.57;;;20.80;;
76459;SDS011;65299;46.084;18.762;2023-01-15T03:14:39;56.33;;;20.00;;
76459;SDS011;65299;46.084;18.762;2023-01-15T03:17:51;53.83;;;21.20;;
76459;SDS011;65299;46.084;18.762;2023-01-15T03:20:56;53.90;;;19.48;;
76459;SDS011;65299;46.084;18.762;2023-01-15T03:23:59;54.77;;;20.93;;
76459;SDS011;65299;46.084;18.762;2023-01-15T03:27:00;64.05;;;22.13;;
76459;SDS011;65299;46.084;18.762;2023-01-15T03:30:03;67.18;;;19.63;;
76459;SDS011;65299;46.084;18.762;2023-01-15T03:33:06;72.50;;;19.93;;
76459;SDS011;65299;46.084;18.762;2023-01-15T03:36:10;90.05;;;27.10;;
76459;SDS011;65299;46.084;18.762;2023-01-15T03:39:11;85.55;;;24.90;;
76459;SDS011;65299;46.084;18.762;2023-01-15T03:45:44;83.97;;;26.38;;
76459;SDS011;65299;46.084;18.762;2023-01-15T03:48:55;74.43;;;26.30;;
76459;SDS011;65299;46.084;18.762;2023-01-15T03:52:07;53.87;;;21.07;;
76459;SDS011;65299;46.084;18.762;2023-01-15T03:55:13;61.72;;;20.65;;
76459;SDS011;65299;46.084;18.762;2023-01-15T04:01:47;60.92;;;20.92;;
76459;SDS011;65299;46.084;18.762;2023-01-15T04:04:50;63.15;;;21.75;;
76459;SDS011;65299;46.084;18.762;2023-01-15T04:07:53;66.27;;;22.67;;
76459;SDS011;65299;46.084;18.762;2023-01-15T04:10:56;52.55;;;19.95;;
76459;SDS011;65299;46.084;18.762;2023-01-15T04:13:59;55.45;;;19.52;;
76459;SDS011;65299;46.084;18.762;2023-01-15T04:16:59;46.27;;;18.30;;
76459;SDS011;65299;46.084;18.762;2023-01-15T04:20:00;52.38;;;20.45;;
76459;SDS011;65299;46.084;18.762;2023-01-15T04:23:00;51.77;;;19.77;;
76459;SDS011;65299;46.084;18.762;2023-01-15T04:26:00;58.40;;;19.30;;
76459;SDS011;65299;46.084;18.762;2023-01-15T04:29:01;58.30;;;20.10;;
76459;SDS011;65299;46.084;18.762;2023-01-15T04:32:01;61.65;;;22.02;;
76459;SDS011;65299;46.084;18.762;2023-01-15T04:35:02;61.93;;;21.13;;
76459;SDS011;65299;46.084;18.762;2023-01-15T04:38:03;53.45;;;17.33;;
76459;SDS011;65299;46.084;18.762;2023-01-15T04:41:03;57.83;;;19.30;;
76459;SDS011;65299;46.084;18.762;2023-01-15T04:44:23;60.47;;;18.73;;
76459;SDS011;65299;46.084;18.762;2023-01-15T04:47:28;65.07;;;22.93;;
76459;SDS011;65299;46.084;18.762;2023-01-15T04:50:29;75.75;;;20.85;;
76459;SDS011;65299;46.084;18.762;2023-01-15T04:53:29;54.77;;;19.53;;
76459;SDS011;65299;46.084;18.762;2023-01-15T04:56:30;73.95;;;21.13;;
76459;SDS011;65299;46.084;18.762;2023-01-15T04:59:32;85.07;;;20.73;;
76459;SDS011;65299;46.084;18.762;2023-01-15T05:02:32;88.03;;;22.00;;
76459;SDS011;65299;46.084;18.762;2023-01-15T05:05:32;86.97;;;20.63;;
76459;SDS011;65299;46.084;18.762;2023-01-15T05:08:33;83.77;;;20.57;;
76459;SDS011;65299;46.084;18.762;2023-01-15T05:11:34;65.55;;;20.90;;
76459;SDS011;65299;46.084;18.762;2023-01-15T05:14:36;51.60;;;18.98;;
76459;SDS011;65299;46.084;18.762;2023-01-15T05:17:37;83.33;;;20.37;;
76459;SDS011;65299;46.084;18.762;2023-01-15T05:20:37;75.07;;;21.40;;
76459;SDS011;65299;46.084;18.762;2023-01-15T05:23:37;71.17;;;20.40;;
76459;SDS011;65299;46.084;18.762;2023-01-15T05:26:38;70.73;;;22.13;;
76459;SDS011;65299;46.084;18.762;2023-01-15T05:29:38;84.28;;;24.10;;
76459;SDS011;65299;46.084;18.762;2023-01-15T05:32:39;54.60;;;19.53;;
76459;SDS011;65299;46.084;18.762;2023-01-15T05:35:39;51.97;;;17.97;;
76459;SDS011;65299;46.084;18.762;2023-01-15T05:38:40;75.15;;;18.15;;
76459;SDS011;65299;46.084;18.762;2023-01-15T05:41:41;80.17;;;20.90;;
76459;SDS011;65299;46.084;18.762;2023-01-15T05:44:50;69.93;;;23.25;;
76459;SDS011;65299;46.084;18.762;2023-01-15T05:47:51;120.85;;;28.98;;
76459;SDS011;65299;46.084;18.762;2023-01-15T05:50:52;87.00;;;24.63;;
76459;SDS011;65299;46.084;18.762;2023-01-15T05:53:53;92.23;;;23.73;;
76459;SDS011;65299;46.084;18.762;2023-01-15T05:56:53;60.63;;;20.47;;
76459;SDS011;65299;46.084;18.762;2023-01-15T05:59:54;58.88;;;18.13;;
76459;SDS011;65299;46.084;18.762;2023-01-15T06:02:55;70.15;;;21.75;;
76459;SDS011;65299;46.084;18.762;2023-01-15T06:05:55;73.13;;;24.10;;
76459;SDS011;65299;46.084;18.762;2023-01-15T06:08:56;64.30;;;21.97;;
76459;SDS011;65299;46.084;18.762;2023-01-15T06:11:56;55.80;;;20.60;;
76459;SDS011;65299;46.084;18.762;2023-01-15T06:14:57;67.90;;;22.43;;
76459;SDS011;65299;46.084;18.762;2023-01-15T06:17:57;64.90;;;20.65;;
76459;SDS011;65299;46.084;18.762;2023-01-15T06:21:01;65.13;;;22.27;;
76459;SDS011;65299;46.084;18.762;2023-01-15T06:24:03;50.47;;;20.42;;
76459;SDS011;65299;46.084;18.762;2023-01-15T06:27:03;58.77;;;20.03;;
76459;SDS011;65299;46.084;18.762;2023-01-15T06:30:04;50.03;;;18.13;;
76459;SDS011;65299;46.084;18.762;2023-01-15T06:33:05;51.92;;;18.42;;
76459;SDS011;65299;46.084;18.762;2023-01-15T06:36:07;39.90;;;17.17;;
76459;SDS011;65299;46.084;18.762;2023-01-15T06:39:12;57.83;;;18.90;;
76459;SDS011;65299;46.084;18.762;2023-01-15T06:42:13;69.60;;;17.63;;
76459;SDS011;65299;46.084;18.762;2023-01-15T06:45:38;30.30;;;13.38;;
76459;SDS011;65299;46.084;18.762;2023-01-15T06:48:58;54.17;;;17.10;;
76459;SDS011;65299;46.084;18.762;2023-01-15T06:51:59;47.27;;;18.07;;
76459;SDS011;65299;46.084;18.762;2023-01-15T06:54:59;47.80;;;15.77;;
76459;SDS011;65299;46.084;18.762;2023-01-15T06:58:01;37.13;;;15.50;;
76459;SDS011;65299;46.084;18.762;2023-01-15T07:01:06;55.15;;;16.65;;
76459;SDS011;65299;46.084;18.762;2023-01-15T07:04:09;48.23;;;17.17;;
76459;SDS011;65299;46.084;18.762;2023-01-15T07:07:10;48.67;;;16.08;;
76459;SDS011;65299;46.084;18.762;2023-01-15T07:10:10;42.53;;;14.77;;
76459;SDS011;65299;46.084;18.762;2023-01-15T07:13:11;45.90;;;16.97;;
76459;SDS011;65299;46.084;18.762;2023-01-15T07:16:11;60.13;;;20.40;;
76459;SDS011;65299;46.084;18.762;2023-01-15T07:19:27;38.90;;;15.65;;
76459;SDS011;65299;46.084;18.762;2023-01-15T07:22:27;38.97;;;14.17;;
76459;SDS011;65299;46.084;18.762;2023-01-15T07:25:27;39.57;;;14.07;;
76459;SDS011;65299;46.084;18.762;2023-01-15T07:28:28;42.38;;;17.20;;
76459;SDS011;65299;46.084;18.762;2023-01-15T07:31:29;47.53;;;17.73;;
76459;SDS011;65299;46.084;18.762;2023-01-15T07:34:30;49.45;;;17.85;;
76459;SDS011;65299;46.084;18.762;2023-01-15T07:37:31;54.90;;;20.40;;
76459;SDS011;65299;46.084;18.762;2023-01-15T07:40:31;45.25;;;17.45;;
76459;SDS011;65299;46.084;18.762;2023-01-15T07:43:32;43.40;;;17.97;;
76459;SDS011;65299;46.084;18.762;2023-01-15T07:46:50;45.63;;;17.42;;
76459;SDS011;65299;46.084;18.762;2023-01-15T07:50:11;40.80;;;16.00;;
76459;SDS011;65299;46.084;18.762;2023-01-15T07:53:14;48.53;;;16.45;;
76459;SDS011;65299;46.084;18.762;2023-01-15T07:56:14;46.83;;;17.17;;
76459;SDS011;65299;46.084;18.762;2023-01-15T07:59:15;34.23;;;13.53;;
76459;SDS011;65299;46.084;18.762;2023-01-15T08:02:15;33.33;;;14.07;;
76459;SDS011;65299;46.084;18.762;2023-01-15T08:05:16;44.35;;;16.23;;
76459;SDS011;65299;46.084;18.762;2023-01-15T08:08:17;55.88;;;17.40;;
76459;SDS011;65299;46.084;18.762;2023-01-15T08:11:18;41.40;;;16.43;;
76459;SDS011;65299;46.084;18.762;2023-01-15T08:14:37;39.40;;;13.40;;
76459;SDS011;65299;46.084;18.762;2023-01-15T08:17:56;29.40;;;12.80;;
76459;SDS011;65299;46.084;18.762;2023-01-15T08:20:56;39.33;;;14.80;;
76459;SDS011;65299;46.084;18.762;2023-01-15T08:23:57;49.30;;;15.43;;
76459;SDS011;65299;46.084;18.762;2023-01-15T08:26:57;33.90;;;13.95;;
76459;SDS011;65299;46.084;18.762;2023-01-15T08:29:57;38.40;;;15.50;;
76459;SDS011;65299;46.084;18.762;2023-01-15T08:32:58;37.93;;;14.83;;
76459;SDS011;65299;46.084;18.762;2023-01-15T08:36:01;41.72;;;15.35;;
76459;SDS011;65299;46.084;18.762;2023-01-15T08:39:01;37.90;;;15.10;;
76459;SDS011;65299;46.084;18.762;2023-01-15T08:42:02;38.58;;;13.20;;
76459;SDS011;65299;46.084;18.762;2023-01-15T08:45:03;35.57;;;15.13;;
76459;SDS011;65299;46.084;18.762;2023-01-15T08:48:04;33.50;;;14.43;;
76459;SDS011;65299;46.084;18.762;2023-01-15T08:51:05;36.17;;;13.97;;
76459;SDS011;65299;46.084;18.762;2023-01-15T08:54:07;44.63;;;16.50;;
76459;SDS011;65299;46.084;18.762;2023-01-15T08:57:07;39.10;;;13.73;;
76459;SDS011;65299;46.084;18.762;2023-01-15T09:00:08;45.22;;;15.95;;
76459;SDS011;65299;46.084;18.762;2023-01-15T09:03:09;39.60;;;15.63;;
76459;SDS011;65299;46.084;18.762;2023-01-15T09:06:10;37.47;;;16.33;;
76459;SDS011;65299;46.084;18.762;2023-01-15T09:09:12;37.83;;;14.82;;
76459;SDS011;65299;46.084;18.762;2023-01-15T09:12:13;28.77;;;12.65;;
76459;SDS011;65299;46.084;18.762;2023-01-15T09:15:13;36.80;;;13.77;;
76459;SDS011;65299;46.084;18.762;2023-01-15T09:18:14;38.37;;;13.93;;
76459;SDS011;65299;46.084;18.762;2023-01-15T09:21:18;40.10;;;13.13;;
76459;SDS011;65299;46.084;18.762;2023-01-15T09:24:19;39.15;;;14.45;;
76459;SDS011;65299;46.084;18.762;2023-01-15T09:27:19;39.23;;;14.47;;
76459;SDS011;65299;46.084;18.762;2023-01-15T09:30:20;38.40;;;11.70;;
76459;SDS011;65299;46.084;18.762;2023-01-15T09:33:21;42.87;;;13.33;;
76459;SDS011;65299;46.084;18.762;2023-01-15T09:36:23;32.92;;;12.63;;
76459;SDS011;65299;46.084;18.762;2023-01-15T09:39:26;29.08;;;12.43;;
76459;SDS011;65299;46.084;18.762;2023-01-15T09:45:51;33.63;;;14.48;;
76459;SDS011;65299;46.084;18.762;2023-01-15T09:55:33;40.78;;;15.13;;
76459;SDS011;65299;46.084;18.762;2023-01-15T09:58:40;37.53;;;15.60;;
76459;SDS011;65299;46.084;18.762;2023-01-15T10:01:40;33.53;;;13.10;;
76459;SDS011;65299;46.084;18.762;2023-01-15T10:04:42;29.45;;;12.30;;
76459;SDS011;65299;46.084;18.762;2023-01-15T10:07:53;31.85;;;13.63;;
76459;SDS011;65299;46.084;18.762;2023-01-15T10:14:20;33.60;;;13.98;;
76459;SDS011;65299;46.084;18.762;2023-01-15T10:17:48;32.97;;;14.70;;
76459;SDS011;65299;46.084;18.762;2023-01-15T10:27:18;33.38;;;15.30;;
76459;SDS011;65299;46.084;18.762;2023-01-15T10:33:29;33.03;;;15.10;;
76459;SDS011;65299;46.084;18.762;2023-01-15T10:36:55;31.77;;;16.30;;
76459;SDS011;65299;46.084;18.762;2023-01-15T10:40:25;27.83;;;14.23;;
76459;SDS011;65299;46.084;18.762;2023-01-15T10:46:40;34.00;;;15.75;;
76459;SDS011;65299;46.084;18.762;2023-01-15T10:49:48;32.10;;;15.73;;
76459;SDS011;65299;46.084;18.762;2023-01-15T10:53:37;32.78;;;17.48;;
76459;SDS011;65299;46.084;18.762;2023-01-15T10:56:20;41.47;;;20.03;;
76459;SDS011;65299;46.084;18.762;2023-01-15T10:59:50;32.33;;;15.63;;
76459;SDS011;65299;46.084;18.762;2023-01-15T11:05:57;34.47;;;16.67;;
76459;SDS011;65299;46.084;18.762;2023-01-15T11:08:58;38.00;;;18.80;;
76459;SDS011;65299;46.084;18.762;2023-01-15T11:12:04;32.70;;;15.57;;
76459;SDS011;65299;46.084;18.762;2023-01-15T11:15:53;30.75;;;15.27;;
76459;SDS011;65299;46.084;18.762;2023-01-15T11:19:26;31.58;;;15.68;;
76459;SDS011;65299;46.084;18.762;2023-01-15T11:22:41;31.08;;;14.65;;
76459;SDS011;65299;46.084;18.762;2023-01-15T11:25:52;33.83;;;16.27;;
76459;SDS011;65299;46.084;18.762;2023-01-15T11:28:54;28.20;;;12.80;;
76459;SDS011;65299;46.084;18.762;2023-01-15T11:31:57;29.40;;;13.82;;
76459;SDS011;65299;46.084;18.762;2023-01-15T11:34:59;24.67;;;12.67;;
76459;SDS011;65299;46.084;18.762;2023-01-15T11:38:19;36.35;;;16.23;;
76459;SDS011;65299;46.084;18.762;2023-01-15T11:41:26;35.27;;;16.40;;
76459;SDS011;65299;46.084;18.762;2023-01-15T11:44:50;33.67;;;16.67;;
76459;SDS011;65299;46.084;18.762;2023-01-15T11:48:17;35.78;;;17.17;;
76459;SDS011;65299;46.084;18.762;2023-01-15T11:51:41;34.25;;;16.52;;
76459;SDS011;65299;46.084;18.762;2023-01-15T11:54:48;41.58;;;20.75;;
76459;SDS011;65299;46.084;18.762;2023-01-15T11:57:51;40.23;;;19.00;;
76459;SDS011;65299;46.084;18.762;2023-01-15T12:00:54;39.00;;;19.40;;
76459;SDS011;65299;46.084;18.762;2023-01-15T12:03:57;39.88;;;20.38;;
76459;SDS011;65299;46.084;18.762;2023-01-15T12:06:59;35.33;;;17.77;;
76459;SDS011;65299;46.084;18.762;2023-01-15T12:21:01;37.17;;;16.45;;
76459;SDS011;65299;46.084;18.762;2023-01-15T12:24:24;39.30;;;17.73;;
76459;SDS011;65299;46.084;18.762;2023-01-15T12:31:01;34.50;;;16.83;;
76459;SDS011;65299;46.084;18.762;2023-01-15T12:37:12;38.13;;;18.13;;
76459;SDS011;65299;46.084;18.762;2023-01-15T12:43:39;39.22;;;18.23;;
76459;SDS011;65299;46.084;18.762;2023-01-15T12:47:04;34.00;;;17.53;;
76459;SDS011;65299;46.084;18.762;2023-01-15T12:53:38;36.92;;;18.27;;
76459;SDS011;65299;46.084;18.762;2023-01-15T13:00:18;38.03;;;18.15;;
76459;SDS011;65299;46.084;18.762;2023-01-15T13:03:29;38.20;;;18.67;;
76459;SDS011;65299;46.084;18.762;2023-01-15T13:06:38;37.70;;;18.08;;
76459;SDS011;65299;46.084;18.762;2023-01-15T13:09:46;35.85;;;17.38;;
76459;SDS011;65299;46.084;18.762;2023-01-15T13:13:15;30.35;;;14.65;;
76459;SDS011;65299;46.084;18.762;2023-01-15T13:23:13;31.85;;;14.32;;
76459;SDS011;65299;46.084;18.762;2023-01-15T13:32:50;34.03;;;16.23;;
76459;SDS011;65299;46.084;18.762;2023-01-15T13:35:55;32.33;;;14.73;;
76459;SDS011;65299;46.084;18.762;2023-01-15T13:39:03;40.30;;;17.42;;
76459;SDS011;65299;46.084;18.762;2023-01-15T13:42:12;31.60;;;15.32;;
76459;SDS011;65299;46.084;18.762;2023-01-15T13:45:47;41.15;;;18.20;;
76459;SDS011;65299;46.084;18.762;2023-01-15T13:48:49;35.60;;;16.38;;
76459;SDS011;65299;46.084;18.762;2023-01-15T13:51:51;36.37;;;17.17;;
76459;SDS011;65299;46.084;18.762;2023-01-15T13:54:52;36.50;;;17.13;;
76459;SDS011;65299;46.084;18.762;2023-01-15T13:57:58;37.33;;;18.17;;
76459;SDS011;65299;46.084;18.762;2023-01-15T14:04:30;43.88;;;20.40;;
76459;SDS011;65299;46.084;18.762;2023-01-15T14:07:35;50.95;;;22.77;;
76459;SDS011;65299;46.084;18.762;2023-01-15T14:10:36;53.38;;;22.70;;
76459;SDS011;65299;46.084;18.762;2023-01-15T14:33:10;35.25;;;18.73;;
76459;SDS011;65299;46.084;18.762;2023-01-15T14:37:00;31.50;;;16.37;;
76459;SDS011;65299;46.084;18.762;2023-01-15T14:40:03;37.17;;;18.15;;
76459;SDS011;65299;46.084;18.762;2023-01-15T14:43:10;35.80;;;19.40;;
76459;SDS011;65299;46.084;18.762;2023-01-15T14:46:25;35.92;;;19.00;;
76459;SDS011;65299;46.084;18.762;2023-01-15T14:49:43;40.45;;;20.30;;
76459;SDS011;65299;46.084;18.762;2023-01-15T14:52:49;43.07;;;20.30;;
76459;SDS011;65299;46.084;18.762;2023-01-15T14:55:55;37.30;;;18.88;;
76459;SDS011;65299;46.084;18.762;2023-01-15T14:59:14;37.83;;;19.00;;
76459;SDS011;65299;46.084;18.762;2023-01-15T15:02:21;37.10;;;19.10;;
76459;SDS011;65299;46.084;18.762;2023-01-15T15:05:30;65.97;;;29.35;;
76459;SDS011;65299;46.084;18.762;2023-01-15T15:08:33;78.17;;;35.13;;
76459;SDS011;65299;46.084;18.762;2023-01-15T15:11:37;61.33;;;29.42;;
76459;SDS011;65299;46.084;18.762;2023-01-15T15:21:12;51.30;;;26.37;;
76459;SDS011;65299;46.084;18.762;2023-01-15T15:24:39;56.63;;;28.08;;
76459;SDS011;65299;46.084;18.762;2023-01-15T15:27:45;49.63;;;25.88;;
76459;SDS011;65299;46.084;18.762;2023-01-15T15:30:46;40.87;;;20.93;;
76459;SDS011;65299;46.084;18.762;2023-01-15T15:33:47;41.80;;;20.73;;
76459;SDS011;65299;46.084;18.762;2023-01-15T15:36:47;42.23;;;21.23;;
76459;SDS011;65299;46.084;18.762;2023-01-15T15:43:02;47.53;;;24.03;;
76459;SDS011;65299;46.084;18.762;2023-01-15T15:46:26;49.80;;;24.50;;
76459;SDS011;65299;46.084;18.762;2023-01-15T15:49:47;41.30;;;20.95;;
76459;SDS011;65299;46.084;18.762;2023-01-15T15:52:48;41.07;;;20.33;;
76459;SDS011;65299;46.084;18.762;2023-01-15T15:55:49;40.85;;;20.45;;
76459;SDS011;65299;46.084;18.762;2023-01-15T15:58:51;45.22;;;21.60;;
76459;SDS011;65299;46.084;18.762;2023-01-15T16:01:54;44.97;;;21.20;;
76459;SDS011;65299;46.084;18.762;2023-01-15T16:04:58;40.20;;;20.13;;
76459;SDS011;65299;46.084;18.762;2023-01-15T16:08:15;46.20;;;22.13;;
76459;SDS011;65299;46.084;18.762;2023-01-15T16:11:18;45.72;;;21.15;;
76459;SDS011;65299;46.084;18.762;2023-01-15T16:14:20;40.83;;;21.05;;
76459;SDS011;65299;46.084;18.762;2023-01-15T16:17:22;40.13;;;19.27;;
76459;SDS011;65299;46.084;18.762;2023-01-15T16:20:26;37.90;;;19.25;;
76459;SDS011;65299;46.084;18.762;2023-01-15T16:23:28;34.88;;;19.17;;
76459;SDS011;65299;46.084;18.762;2023-01-15T16:26:43;42.50;;;19.42;;
76459;SDS011;65299;46.084;18.762;2023-01-15T16:29:47;34.17;;;18.02;;
76459;SDS011;65299;46.084;18.762;2023-01-15T16:32:50;33.10;;;17.30;;
76459;SDS011;65299;46.084;18.762;2023-01-15T16:35:55;42.10;;;18.45;;
76459;SDS011;65299;46.084;18.762;2023-01-15T16:38:57;39.55;;;18.92;;
76459;SDS011;65299;46.084;18.762;2023-01-15T16:41:58;35.10;;;17.70;;
76459;SDS011;65299;46.084;18.762;2023-01-15T16:45:02;33.23;;;16.90;;
76459;SDS011;65299;46.084;18.762;2023-01-15T16:51:37;36.40;;;17.63;;
76459;SDS011;65299;46.084;18.762;2023-01-15T16:54:42;34.78;;;16.70;;
76459;SDS011;65299;46.084;18.762;2023-01-15T16:57:43;33.97;;;16.38;;
76459;SDS011;65299;46.084;18.762;2023-01-15T17:00:45;34.70;;;17.43;;
76459;SDS011;65299;46.084;18.762;2023-01-15T17:03:48;34.20;;;17.13;;
76459;SDS011;65299;46.084;18.762;2023-01-15T17:06:58;37.60;;;17.93;;
76459;SDS011;65299;46.084;18.762;2023-01-15T17:10:27;43.25;;;18.90;;
76459;SDS011;65299;46.084;18.762;2023-01-15T17:16:33;56.95;;;27.50;;
76459;SDS011;65299;46.084;18.762;2023-01-15T17:19:33;41.20;;;20.53;;
76459;SDS011;65299;46.084;18.762;2023-01-15T17:22:34;41.27;;;20.73;;
76459;SDS011;65299;46.084;18.762;2023-01-15T17:25:35;46.17;;;22.77;;
76459;SDS011;65299;46.084;18.762;2023-01-15T17:28:36;48.67;;;22.27;;
76459;SDS011;65299;46.084;18.762;2023-01-15T17:31:36;49.05;;;22.80;;
76459;SDS011;65299;46.084;18.762;2023-01-15T17:34:37;46.00;;;22.67;;
76459;SDS011;65299;46.084;18.762;2023-01-15T17:37:38;65.57;;;28.60;;
76459;SDS011;65299;46.084;18.762;2023-01-15T17:40:38;62.83;;;30.93;;
76459;SDS011;65299;46.084;18.762;2023-01-15T17:43:39;56.43;;;26.93;;
76459;SDS011;65299;46.084;18.762;2023-01-15T17:46:40;66.95;;;31.60;;
76459;SDS011;65299;46.084;18.762;2023-01-15T17:49:40;90.63;;;42.90;;
76459;SDS011;65299;46.084;18.762;2023-01-15T17:52:41;96.40;;;45.83;;
76459;SDS011;65299;46.084;18.762;2023-01-15T17:55:41;88.63;;;42.87;;
76459;SDS011;65299;46.084;18.762;2023-01-15T17:59:00;65.13;;;31.92;;
76459;SDS011;65299;46.084;18.762;2023-01-15T18:02:19;62.03;;;30.33;;
76459;SDS011;65299;46.084;18.762;2023-01-15T18:05:38;61.35;;;29.05;;
76459;SDS011;65299;46.084;18.762;2023-01-15T18:08:40;43.77;;;20.73;;
76459;SDS011;65299;46.084;18.762;2023-01-15T18:11:45;41.22;;;19.58;;
76459;SDS011;65299;46.084;18.762;2023-01-15T18:14:45;40.08;;;18.85;;
76459;SDS011;65299;46.084;18.762;2023-01-15T18:17:46;46.50;;;23.57;;
76459;SDS011;65299;46.084;18.762;2023-01-15T18:20:46;54.07;;;26.73;;
76459;SDS011;65299;46.084;18.762;2023-01-15T18:23:47;53.83;;;26.60;;
76459;SDS011;65299;46.084;18.762;2023-01-15T18:26:48;65.68;;;30.73;;
76459;SDS011;65299;46.084;18.762;2023-01-15T18:29:50;35.75;;;18.25;;
76459;SDS011;65299;46.084;18.762;2023-01-15T18:32:51;27.03;;;14.30;;
76459;SDS011;65299;46.084;18.762;2023-01-15T18:36:08;29.10;;;14.33;;
76459;SDS011;65299;46.084;18.762;2023-01-15T18:39:10;36.03;;;16.52;;
76459;SDS011;65299;46.084;18.762;2023-01-15T18:42:12;28.83;;;13.85;;
76459;SDS011;65299;46.084;18.762;2023-01-15T18:45:12;27.20;;;13.80;;
76459;SDS011;65299;46.084;18.762;2023-01-15T18:48:32;22.63;;;11.70;;
76459;SDS011;65299;46.084;18.762;2023-01-15T18:51:33;28.75;;;12.68;;
76459;SDS011;65299;46.084;18.762;2023-01-15T18:54:34;24.80;;;13.03;;
76459;SDS011;65299;46.084;18.762;2023-01-15T18:57:35;23.70;;;12.35;;
76459;SDS011;65299;46.084;18.762;2023-01-15T19:00:35;24.70;;;12.27;;
76459;SDS011;65299;46.084;18.762;2023-01-15T19:03:35;29.70;;;14.17;;
76459;SDS011;65299;46.084;18.762;2023-01-15T19:06:36;28.40;;;14.87;;
76459;SDS011;65299;46.084;18.762;2023-01-15T19:09:37;25.98;;;13.27;;
76459;SDS011;65299;46.084;18.762;2023-01-15T19:12:38;41.30;;;17.37;;
76459;SDS011;65299;46.084;18.762;2023-01-15T19:15:40;41.38;;;15.75;;
76459;SDS011;65299;46.084;18.762;2023-01-15T19:18:59;37.85;;;15.98;;
76459;SDS011;65299;46.084;18.762;2023-01-15T19:21:59;43.20;;;16.67;;
76459;SDS011;65299;46.084;18.762;2023-01-15T19:25:18;36.13;;;16.42;;
76459;SDS011;65299;46.084;18.762;2023-01-15T19:28:22;30.27;;;14.15;;
76459;SDS011;65299;46.084;18.762;2023-01-15T19:31:22;29.80;;;14.70;;
76459;SDS011;65299;46.084;18.762;2023-01-15T19:34:35;25.50;;;13.23;;
76459;SDS011;65299;46.084;18.762;2023-01-15T19:37:36;30.00;;;14.07;;
76459;SDS011;65299;46.084;18.762;2023-01-15T19:40:38;28.02;;;13.98;;
76459;SDS011;65299;46.084;18.762;2023-01-15T19:43:39;33.72;;;15.40;;